createdAt,value
2022-08-04T00:00:16.253Z,21.84
2022-08-04T00:03:17.299Z,21.45
2022-08-04T00:06:19.593Z,21.41
2022-08-04T00:09:00.250Z,21.36
2022-08-04T00:11:32.637Z,21.78
2022-08-04T00:14:11.815Z,21.68
2022-08-04T00:16:43.475Z,21.32
2022-08-04T00:19:30.822Z,21.48
2022-08-04T00:22:05.826Z,21.23
2022-08-04T00:24:37.897Z,20.99
2022-08-04T00:27:09.732Z,20.99
2022-08-04T00:29:40.500Z,20.96
2022-08-04T00:32:09.696Z,20.87
2022-08-04T00:34:38.653Z,20.94
2022-08-04T00:37:08.035Z,20.81
2022-08-04T00:39:37.614Z,20.89
2022-08-04T00:42:34.602Z,20.74
2022-08-04T00:46:25.024Z,20.83
2022-08-04T00:49:17.595Z,20.78
2022-08-04T00:52:30.671Z,20.59
2022-08-04T00:55:41.945Z,20.74
2022-08-04T00:59:05.848Z,21.05
2022-08-04T01:01:53.018Z,20.74
2022-08-04T01:04:47.772Z,20.84
2022-08-04T01:07:55.761Z,20.49
2022-08-04T01:11:14.575Z,20.56
2022-08-04T01:14:56.335Z,20.70
2022-08-04T01:17:43.727Z,20.87
2022-08-04T01:20:22.247Z,20.52
2022-08-04T01:23:12.767Z,20.50
2022-08-04T01:26:42.292Z,20.30
2022-08-04T01:29:24.173Z,20.41
2022-08-04T01:32:05.713Z,20.37
2022-08-04T01:35:15.463Z,20.75
2022-08-04T01:38:28.931Z,20.58
2022-08-04T01:41:05.760Z,20.41
2022-08-04T01:43:41.981Z,20.44
2022-08-04T01:46:18.884Z,20.42
2022-08-04T01:48:50.288Z,20.25
2022-08-04T01:51:21.373Z,20.37
2022-08-04T01:53:50.043Z,19.99
2022-08-04T01:56:20.336Z,20.18
2022-08-04T01:58:49.364Z,20.06
2022-08-04T02:01:18.058Z,20.00
2022-08-04T02:04:21.324Z,20.05
2022-08-04T02:06:56.417Z,20.20
2022-08-04T02:09:59.309Z,19.93
2022-08-04T02:13:14.971Z,20.05
2022-08-04T02:16:21.951Z,20.16
2022-08-04T02:19:33.708Z,19.70
2022-08-04T02:22:19.439Z,19.78
2022-08-04T02:24:54.308Z,19.69
2022-08-04T02:28:00.335Z,19.89
2022-08-04T02:30:22.989Z,19.94
2022-08-04T02:32:56.474Z,19.96
2022-08-04T02:35:28.621Z,19.72
2022-08-04T02:38:32.824Z,19.50
2022-08-04T02:41:03.057Z,19.40
2022-08-04T02:43:51.386Z,19.37
2022-08-04T02:46:22.773Z,19.74
2022-08-04T02:48:54.702Z,19.46
2022-08-04T02:51:38.032Z,19.97
2022-08-04T02:54:09.258Z,19.59
2022-08-04T02:56:40.709Z,19.62
2022-08-04T02:59:13.456Z,19.90
2022-08-04T03:01:57.329Z,19.67
2022-08-04T03:04:55.226Z,19.22
2022-08-04T03:08:06.126Z,19.50
2022-08-04T03:11:07.954Z,19.24
2022-08-04T03:14:09.605Z,19.32
2022-08-04T03:17:21.586Z,19.03
2022-08-04T03:20:38.845Z,18.89
2022-08-04T03:24:19.707Z,19.12
2022-08-04T03:27:13.695Z,18.94
2022-08-04T03:30:06.719Z,18.78
2022-08-04T03:33:37.913Z,19.01
2022-08-04T03:36:41.415Z,19.19
2022-08-04T03:40:17.764Z,18.55
2022-08-04T03:43:57.447Z,18.84
2022-08-04T03:46:55.997Z,18.68
2022-08-04T03:50:20.766Z,19.12
2022-08-04T03:53:28.831Z,19.04
2022-08-04T03:56:27.956Z,18.87
2022-08-04T04:00:09.767Z,19.30
2022-08-04T04:03:31.534Z,19.68
2022-08-04T04:06:58.888Z,19.55
2022-08-04T04:10:06.414Z,19.56
2022-08-04T04:13:00.299Z,19.37
2022-08-04T04:16:08.174Z,19.36
2022-08-04T04:19:25.341Z,19.55
2022-08-04T04:22:18.566Z,19.58
2022-08-04T04:25:27.045Z,19.66
2022-08-04T04:28:46.760Z,20.29
2022-08-04T04:32:24.611Z,20.52
2022-08-04T04:35:29.660Z,20.39
2022-08-04T04:38:29.538Z,20.13
2022-08-04T04:41:18.238Z,20.15
2022-08-04T04:44:12.578Z,20.22
2022-08-04T04:47:00.701Z,20.34
2022-08-04T04:49:52.469Z,20.64
2022-08-04T04:52:54.061Z,20.81
2022-08-04T04:56:06.550Z,21.13
2022-08-04T04:58:37.623Z,21.32
2022-08-04T05:02:03.819Z,21.57
2022-08-04T05:04:56.627Z,21.44
2022-08-04T05:08:45.163Z,22.00
2022-08-04T05:11:41.800Z,22.31
2022-08-04T05:14:37.546Z,22.47
2022-08-04T05:17:28.323Z,22.57
2022-08-04T05:20:35.622Z,22.49
2022-08-04T05:23:20.102Z,23.08
2022-08-04T05:26:02.132Z,23.21
2022-08-04T05:28:36.960Z,23.37
2022-08-04T05:31:24.036Z,23.60
2022-08-04T05:34:06.254Z,23.78
2022-08-04T05:36:52.420Z,24.24
2022-08-04T05:39:33.839Z,24.31
2022-08-04T05:42:05.067Z,24.13
2022-08-04T05:44:36.876Z,24.29
2022-08-04T05:47:08.123Z,24.82
2022-08-04T05:49:41.622Z,24.72
2022-08-04T05:52:11.994Z,24.66
2022-08-04T05:54:42.556Z,24.36
2022-08-04T05:57:11.828Z,24.69
2022-08-04T05:59:46.685Z,24.96
2022-08-04T06:02:18.022Z,25.13
2022-08-04T06:04:51.898Z,25.12
2022-08-04T06:07:21.094Z,25.27
2022-08-04T06:09:49.800Z,25.44
2022-08-04T06:12:53.715Z,25.69
2022-08-04T06:15:25.415Z,25.82
2022-08-04T06:19:57.766Z,25.56
2022-08-04T06:21:01.069Z,26.06
2022-08-04T06:23:37.855Z,25.99
2022-08-04T06:26:27.146Z,26.28
2022-08-04T06:28:56.869Z,26.21
2022-08-04T06:32:27.285Z,26.36
2022-08-04T06:34:33.507Z,26.40
2022-08-04T06:37:04.451Z,26.69
2022-08-04T06:39:34.352Z,26.88
2022-08-04T06:42:22.178Z,27.13
2022-08-04T06:44:57.249Z,27.33
2022-08-04T06:47:26.615Z,27.20
2022-08-04T06:51:25.419Z,27.70
2022-08-04T06:52:46.947Z,28.21
2022-08-04T06:55:15.469Z,28.80
2022-08-04T06:57:45.487Z,28.53
2022-08-04T07:00:15.262Z,29.21
2022-08-04T07:02:51.853Z,29.40
2022-08-04T07:05:21.669Z,29.49
2022-08-04T07:07:56.413Z,29.68
2022-08-04T07:10:29.647Z,30.10
2022-08-04T07:13:00.422Z,29.96
2022-08-04T07:15:29.924Z,30.42
2022-08-04T07:18:00.513Z,30.25
2022-08-04T07:20:35.533Z,30.46
2022-08-04T07:23:10.333Z,30.81
2022-08-04T07:26:00.032Z,30.82
2022-08-04T07:28:30.441Z,30.73
2022-08-04T07:30:59.718Z,31.43
2022-08-04T07:33:29.797Z,31.52
2022-08-04T07:36:05.928Z,31.80
2022-08-04T07:38:48.293Z,31.33
2022-08-04T07:41:42.592Z,31.32
2022-08-04T07:44:16.093Z,31.85
2022-08-04T07:46:47.091Z,32.03
2022-08-04T07:49:55.064Z,32.17
2022-08-04T07:52:07.383Z,31.54
2022-08-04T07:54:36.655Z,31.28
2022-08-04T07:57:05.295Z,31.56
2022-08-04T07:59:36.711Z,31.93
2022-08-04T08:02:05.385Z,32.30
2022-08-04T08:04:35.475Z,31.85
2022-08-04T08:07:04.033Z,32.14
2022-08-04T08:09:34.528Z,32.26
2022-08-04T08:12:36.161Z,32.35
2022-08-04T08:14:52.493Z,32.71
2022-08-04T08:17:21.094Z,32.86
2022-08-04T08:19:49.747Z,32.75
2022-08-04T08:22:18.498Z,32.50
2022-08-04T08:24:47.054Z,32.83
2022-08-04T08:27:15.686Z,33.29
2022-08-04T08:29:45.556Z,32.68
2022-08-04T08:32:15.496Z,33.07
2022-08-04T08:34:46.444Z,33.07
2022-08-04T08:37:35.215Z,33.04
2022-08-04T08:40:37.901Z,33.25
2022-08-04T08:44:19.301Z,33.52
2022-08-04T08:48:05.078Z,33.25
2022-08-04T08:51:18.911Z,33.84
2022-08-04T08:54:40.788Z,34.19
2022-08-04T08:58:00.018Z,34.05
2022-08-04T09:01:07.750Z,33.80
2022-08-04T09:04:28.820Z,34.09
2022-08-04T09:07:22.382Z,33.05
2022-08-04T09:10:27.140Z,33.57
2022-08-04T09:13:13.852Z,34.00
2022-08-04T09:16:20.690Z,32.84
2022-08-04T09:19:04.293Z,33.65
2022-08-04T09:22:22.864Z,33.13
2022-08-04T09:25:07.818Z,33.34
2022-08-04T09:27:56.221Z,33.75
2022-08-04T09:30:35.026Z,33.86
2022-08-04T09:33:44.629Z,34.18
2022-08-04T09:36:58.870Z,34.09
2022-08-04T09:40:31.296Z,34.23
2022-08-04T09:44:50.368Z,34.27
2022-08-04T09:47:39.555Z,33.20
2022-08-04T09:50:39.422Z,33.12
2022-08-04T09:53:54.671Z,33.49
2022-08-04T09:57:05.207Z,34.36
2022-08-04T10:00:08.401Z,33.56
2022-08-04T10:02:56.272Z,34.22
2022-08-04T10:06:13.027Z,34.08
2022-08-04T10:09:29.921Z,33.56
2022-08-04T10:11:58.246Z,33.44
2022-08-04T10:14:41.711Z,33.25
2022-08-04T10:17:38.946Z,34.06
2022-08-04T10:21:01.181Z,33.94
2022-08-04T10:23:55.922Z,33.94
2022-08-04T10:26:46.691Z,33.69
2022-08-04T10:29:46.978Z,34.13
2022-08-04T10:32:34.478Z,34.48
2022-08-04T10:35:23.897Z,34.59
2022-08-04T10:38:23.995Z,34.64
2022-08-04T10:41:28.057Z,35.04
2022-08-04T10:44:23.854Z,34.93
2022-08-04T10:47:01.605Z,34.87
2022-08-04T10:49:41.166Z,34.82
2022-08-04T10:52:28.638Z,34.72
2022-08-04T10:55:03.885Z,34.23
2022-08-04T10:57:53.250Z,33.72
2022-08-04T11:00:29.700Z,34.22
2022-08-04T11:03:25.438Z,34.66
2022-08-04T11:06:00.743Z,34.51
2022-08-04T11:08:54.961Z,33.91
2022-08-04T11:12:00.526Z,32.97
2022-08-04T11:15:00.239Z,33.03
2022-08-04T11:17:58.613Z,32.91
2022-08-04T11:20:46.593Z,32.69
2022-08-04T11:23:19.396Z,33.36
2022-08-04T11:26:45.335Z,32.97
2022-08-04T11:29:32.747Z,33.09
2022-08-04T11:32:11.101Z,33.59
2022-08-04T11:34:52.919Z,33.69
2022-08-04T11:37:50.745Z,33.28
2022-08-04T11:40:33.867Z,33.60
2022-08-04T11:44:00.825Z,34.29
2022-08-04T11:46:24.604Z,33.56
2022-08-04T11:49:16.125Z,33.69
2022-08-04T11:51:47.371Z,33.49
2022-08-04T11:54:17.983Z,34.38
2022-08-04T11:56:46.618Z,34.22
2022-08-04T11:59:15.762Z,34.33
2022-08-04T12:02:49.647Z,34.28
2022-08-04T12:05:37.041Z,33.99
2022-08-04T12:08:22.522Z,34.25
2022-08-04T12:11:46.187Z,33.93
2022-08-04T12:15:00.038Z,33.96
2022-08-04T12:18:01.387Z,33.74
2022-08-04T12:20:48.986Z,34.05
2022-08-04T12:23:36.496Z,34.40
2022-08-04T12:26:23.037Z,34.15
2022-08-04T12:29:16.401Z,34.90
2022-08-04T12:32:12.763Z,34.63
2022-08-04T12:35:18.926Z,34.39
2022-08-04T12:38:16.784Z,34.50
2022-08-04T12:40:57.854Z,34.46
2022-08-04T12:43:45.682Z,35.05
2022-08-04T12:46:27.760Z,34.89
2022-08-04T12:49:04.432Z,34.46
2022-08-04T12:52:08.438Z,34.88
2022-08-04T12:54:39.271Z,34.55
2022-08-04T12:57:09.101Z,34.86
2022-08-04T12:59:45.682Z,34.59
2022-08-04T13:02:32.162Z,34.82
2022-08-04T13:05:08.005Z,34.82
2022-08-04T13:07:53.914Z,34.66
2022-08-04T13:10:30.368Z,34.46
2022-08-04T13:13:01.797Z,34.74
2022-08-04T13:15:31.264Z,34.70
2022-08-04T13:18:14.781Z,34.84
2022-08-04T13:20:45.000Z,35.03
2022-08-04T13:23:21.924Z,35.46
2022-08-04T13:26:44.347Z,35.45
2022-08-04T13:28:50.358Z,35.29
2022-08-04T13:31:24.000Z,34.63
2022-08-04T13:34:07.907Z,35.18
2022-08-04T13:36:50.401Z,34.70
2022-08-04T13:39:21.976Z,35.33
2022-08-04T13:41:58.916Z,34.59
2022-08-04T13:44:36.600Z,34.71
2022-08-04T13:47:20.771Z,35.27
2022-08-04T13:50:27.619Z,34.62
2022-08-04T13:53:02.767Z,35.36
2022-08-04T13:55:37.142Z,34.77
2022-08-04T13:58:22.404Z,35.18
2022-08-04T14:01:01.381Z,35.50
2022-08-04T14:04:02.044Z,35.18
2022-08-04T14:06:35.864Z,35.28
2022-08-04T14:09:16.471Z,34.79
2022-08-04T14:12:09.779Z,34.21
2022-08-04T14:14:53.573Z,33.75
2022-08-04T14:17:29.909Z,33.50
2022-08-04T14:20:03.496Z,34.03
2022-08-04T14:22:36.156Z,34.06
2022-08-04T14:25:16.117Z,34.85
2022-08-04T14:27:57.412Z,35.05
2022-08-04T14:30:37.825Z,34.84
2022-08-04T14:34:02.713Z,34.83
2022-08-04T14:36:03.878Z,35.36
2022-08-04T14:38:58.548Z,34.70
2022-08-04T14:41:44.456Z,35.12
2022-08-04T14:44:13.074Z,35.26
2022-08-04T14:46:59.264Z,35.54
2022-08-04T14:49:27.778Z,35.33
2022-08-04T14:52:03.168Z,35.47
2022-08-04T14:54:35.451Z,35.20
2022-08-04T14:57:09.025Z,35.14
2022-08-04T15:00:01.566Z,34.72
2022-08-04T15:02:32.660Z,34.62
2022-08-04T15:06:01.636Z,34.60
2022-08-04T15:07:52.885Z,34.91
2022-08-04T15:10:22.985Z,35.03
2022-08-04T15:12:51.726Z,35.12
2022-08-04T15:15:36.485Z,34.84
2022-08-04T15:18:10.535Z,34.59
2022-08-04T15:20:42.467Z,34.51
2022-08-04T15:23:11.168Z,34.66
2022-08-04T15:25:55.088Z,34.72
2022-08-04T15:28:28.974Z,34.49
2022-08-04T15:30:58.324Z,34.53
2022-08-04T15:33:34.064Z,34.85
2022-08-04T15:36:36.551Z,34.40
2022-08-04T15:39:38.455Z,34.30
2022-08-04T15:42:34.294Z,34.61
2022-08-04T15:46:04.251Z,34.59
2022-08-04T15:48:17.420Z,34.24
2022-08-04T15:51:02.924Z,34.23
2022-08-04T15:54:03.182Z,34.57
2022-08-04T15:56:31.201Z,34.04
2022-08-04T15:58:59.960Z,34.06
2022-08-04T16:01:28.502Z,34.23
2022-08-04T16:03:59.830Z,34.41
2022-08-04T16:06:30.616Z,34.74
2022-08-04T16:09:05.080Z,34.57
2022-08-04T16:11:35.100Z,34.31
2022-08-04T16:14:03.729Z,34.38
2022-08-04T16:16:50.207Z,34.47
2022-08-04T16:19:55.806Z,34.34
2022-08-04T16:22:42.537Z,34.41
2022-08-04T16:25:11.213Z,34.31
2022-08-04T16:27:43.844Z,33.75
2022-08-04T16:30:15.166Z,33.94
2022-08-04T16:32:48.807Z,33.67
2022-08-04T16:35:28.708Z,33.59
2022-08-04T16:38:16.235Z,33.40
2022-08-04T16:40:45.362Z,33.42
2022-08-04T16:43:22.442Z,33.44
2022-08-04T16:46:01.105Z,33.35
2022-08-04T16:48:35.983Z,33.36
2022-08-04T16:51:15.016Z,33.04
2022-08-04T16:53:52.266Z,33.04
2022-08-04T16:56:35.857Z,33.33
2022-08-04T16:59:13.535Z,32.97
2022-08-04T17:01:56.212Z,32.91
2022-08-04T17:04:35.806Z,33.06
2022-08-04T17:07:06.988Z,33.00
2022-08-04T17:09:35.617Z,32.72
2022-08-04T17:12:04.513Z,32.87
2022-08-04T17:14:32.983Z,32.95
2022-08-04T17:17:04.439Z,32.38
2022-08-04T17:19:38.314Z,32.54
2022-08-04T17:22:10.201Z,32.65
2022-08-04T17:24:41.260Z,32.39
2022-08-04T17:28:06.185Z,32.10
2022-08-04T17:30:01.124Z,32.39
2022-08-04T17:32:29.815Z,32.01
2022-08-04T17:35:02.131Z,31.63
2022-08-04T17:37:40.136Z,31.82
2022-08-04T17:40:18.625Z,31.42
2022-08-04T17:44:01.132Z,31.00
2022-08-04T17:46:28.921Z,31.03
2022-08-04T17:49:12.303Z,30.56
2022-08-04T17:52:06.758Z,30.55
2022-08-04T17:54:40.986Z,30.53
2022-08-04T17:57:22.132Z,30.05
2022-08-04T17:59:59.319Z,30.22
2022-08-04T18:02:34.865Z,29.75
2022-08-04T18:05:11.851Z,29.64
2022-08-04T18:08:35.551Z,29.61
2022-08-04T18:10:52.328Z,29.05
2022-08-04T18:13:29.042Z,29.39
2022-08-04T18:16:05.876Z,29.20
2022-08-04T18:18:41.295Z,28.92
2022-08-04T18:21:17.697Z,29.10
2022-08-04T18:23:50.911Z,28.43
2022-08-04T18:26:23.752Z,28.74
2022-08-04T18:28:52.771Z,28.73
2022-08-04T18:31:21.423Z,28.30
2022-08-04T18:33:57.223Z,28.55
2022-08-04T18:36:37.998Z,28.28
2022-08-04T18:39:15.862Z,28.00
2022-08-04T18:42:01.736Z,28.11
2022-08-04T18:44:52.307Z,27.94
2022-08-04T18:51:01.774Z,27.13
2022-08-04T18:53:02.347Z,26.96
2022-08-04T18:55:55.778Z,27.20
2022-08-04T18:58:21.608Z,27.04
2022-08-04T19:01:00.251Z,26.91
2022-08-04T19:03:32.999Z,26.95
2022-08-04T19:06:03.496Z,27.01
2022-08-04T19:08:42.351Z,26.68
2022-08-04T19:11:28.689Z,26.82
2022-08-04T19:14:01.950Z,26.85
2022-08-04T19:16:33.116Z,26.67
2022-08-04T19:19:08.643Z,25.88
2022-08-04T19:22:00.283Z,26.52
2022-08-04T19:24:32.963Z,26.31
2022-08-04T19:27:08.326Z,26.19
2022-08-04T19:29:41.362Z,26.39
2022-08-04T19:32:16.142Z,26.00
2022-08-04T19:34:47.917Z,26.12
2022-08-04T19:37:58.207Z,25.99
2022-08-04T19:40:12.942Z,25.74
2022-08-04T19:42:42.702Z,26.13
2022-08-04T19:45:15.889Z,25.86
2022-08-04T19:48:16.371Z,25.53
2022-08-04T19:50:35.016Z,25.60
2022-08-04T19:53:04.421Z,25.50
2022-08-04T19:55:50.377Z,25.52
2022-08-04T19:58:26.367Z,25.35
2022-08-04T20:00:55.918Z,25.48
2022-08-04T20:04:10.506Z,25.13
2022-08-04T20:06:14.144Z,25.45
2022-08-04T20:08:47.872Z,25.24
2022-08-04T20:11:18.931Z,25.28
2022-08-04T20:13:54.451Z,25.43
2022-08-04T20:16:29.282Z,25.28
2022-08-04T20:19:03.657Z,25.16
2022-08-04T20:21:53.936Z,25.44
2022-08-04T20:24:38.988Z,25.25
2022-08-04T20:27:15.207Z,25.05
2022-08-04T20:29:49.386Z,25.41
2022-08-04T20:32:25.112Z,25.50
2022-08-04T20:34:56.904Z,25.38
2022-08-04T20:37:55.423Z,25.57
2022-08-04T20:40:16.431Z,25.44
2022-08-04T20:42:46.266Z,25.44
2022-08-04T20:45:16.623Z,25.29
2022-08-04T20:47:54.162Z,25.57
2022-08-04T20:50:29.591Z,25.51
2022-08-04T20:52:59.909Z,25.28
2022-08-04T20:55:29.451Z,25.33
2022-08-04T20:58:03.196Z,25.09
2022-08-04T21:00:32.861Z,25.11
2022-08-04T21:03:03.026Z,25.05
2022-08-04T21:05:32.497Z,25.25
2022-08-04T21:08:01.686Z,25.21
2022-08-04T21:10:30.628Z,25.02
2022-08-04T21:12:59.662Z,25.00
2022-08-04T21:15:58.516Z,24.96
2022-08-04T21:18:17.133Z,24.89
2022-08-04T21:20:48.042Z,24.57
2022-08-04T21:23:17.136Z,24.59
2022-08-04T21:25:51.059Z,24.44
2022-08-04T21:28:20.261Z,24.45
2022-08-04T21:33:50.118Z,24.38
2022-08-04T21:36:20.615Z,24.31
2022-08-04T21:38:51.201Z,24.24
2022-08-04T21:41:26.988Z,24.19
2022-08-04T21:43:58.600Z,23.96
2022-08-04T21:46:30.309Z,24.02
2022-08-04T21:49:01.073Z,23.91
2022-08-04T21:52:00.245Z,23.74
2022-08-04T21:54:27.417Z,23.76
2022-08-04T21:56:55.989Z,23.66
2022-08-04T21:59:30.688Z,23.64
2022-08-04T22:02:01.981Z,23.52
2022-08-04T22:04:31.373Z,23.34
2022-08-04T22:07:03.097Z,23.34
2022-08-04T22:09:38.460Z,23.08
2022-08-04T22:12:12.433Z,23.38
2022-08-04T22:14:41.663Z,23.13
2022-08-04T22:17:18.756Z,22.91
2022-08-04T22:19:55.449Z,22.86
2022-08-04T22:22:29.477Z,22.89
2022-08-04T22:28:02.901Z,22.62
2022-08-04T22:30:37.008Z,22.45
2022-08-04T22:33:09.062Z,22.32
2022-08-04T22:35:48.954Z,22.33
2022-08-04T22:38:25.529Z,22.44
2022-08-04T22:41:11.793Z,22.53
2022-08-04T22:43:43.702Z,22.54
2022-08-04T22:46:27.370Z,22.31
2022-08-04T22:48:56.081Z,22.28
2022-08-04T22:51:27.166Z,22.26
2022-08-04T22:53:55.841Z,22.07
2022-08-04T22:56:38.067Z,21.78
2022-08-04T22:59:11.363Z,21.83
2022-08-04T23:02:00.879Z,21.76
2022-08-04T23:04:33.633Z,21.81
2022-08-04T23:07:09.121Z,21.77
2022-08-04T23:09:51.054Z,21.66
2022-08-04T23:12:25.843Z,21.64
2022-08-04T23:14:57.513Z,21.66
2022-08-04T23:17:28.863Z,21.72
2022-08-04T23:19:59.232Z,21.73
2022-08-04T23:22:40.953Z,21.63
2022-08-04T23:25:16.338Z,21.59
2022-08-04T23:27:51.478Z,21.40
2022-08-04T23:30:30.140Z,21.42
2022-08-04T23:32:59.378Z,21.40
2022-08-04T23:35:28.077Z,21.26
2022-08-04T23:37:59.742Z,21.37
2022-08-04T23:40:34.370Z,21.31
2022-08-04T23:43:17.307Z,21.48
2022-08-04T23:46:07.098Z,21.69
2022-08-04T23:48:38.959Z,21.59
2022-08-04T23:51:13.986Z,21.46
2022-08-04T23:54:01.610Z,21.62
2022-08-04T23:56:35.782Z,21.24
2022-08-04T23:59:05.827Z,21.24
